sensor_id;sensor_type;location;lat;lon;timestamp;temperature;humidity
40177;DHT22;31511;46.176;9.874;2023-04-28T00:02:28;14.90;99.90
40177;DHT22;31511;46.176;9.874;2023-04-28T00:05:14;14.80;99.90
40177;DHT22;31511;46.176;9.874;2023-04-28T00:07:59;14.60;99.90
40177;DHT22;31511;46.176;9.874;2023-04-28T00:10:43;14.50;99.90
40177;DHT22;31511;46.176;9.874;2023-04-28T00:13:28;14.50;99.90
40177;DHT22;31511;46.176;9.874;2023-04-28T00:16:14;14.60;99.90
40177;DHT22;31511;46.176;9.874;2023-04-28T00:18:58;14.70;99.90
40177;DHT22;31511;46.176;9.874;2023-04-28T00:21:43;15.00;99.90
40177;DHT22;31511;46.176;9.874;2023-04-28T00:24:28;14.80;99.90
40177;DHT22;31511;46.176;9.874;2023-04-28T00:27:15;14.60;99.90
40177;DHT22;31511;46.176;9.874;2023-04-28T00:29:59;14.70;99.90
40177;DHT22;31511;46.176;9.874;2023-04-28T00:32:43;14.70;99.90
40177;DHT22;31511;46.176;9.874;2023-04-28T00:35:28;14.70;99.90
40177;DHT22;31511;46.176;9.874;2023-04-28T00:38:12;14.60;99.90
40177;DHT22;31511;46.176;9.874;2023-04-28T00:40:58;14.70;99.90
40177;DHT22;31511;46.176;9.874;2023-04-28T00:43:45;14.60;99.90
40177;DHT22;31511;46.176;9.874;2023-04-28T00:46:30;14.60;99.90
40177;DHT22;31511;46.176;9.874;2023-04-28T00:49:15;14.60;99.90
40177;DHT22;31511;46.176;9.874;2023-04-28T00:52:00;14.50;99.90
40177;DHT22;31511;46.176;9.874;2023-04-28T00:54:47;14.30;99.90
40177;DHT22;31511;46.176;9.874;2023-04-28T00:57:32;14.30;99.90
40177;DHT22;31511;46.176;9.874;2023-04-28T01:00:16;14.20;99.90
40177;DHT22;31511;46.176;9.874;2023-04-28T01:03:01;14.20;99.90
40177;DHT22;31511;46.176;9.874;2023-04-28T01:05:45;14.40;99.90
40177;DHT22;31511;46.176;9.874;2023-04-28T01:08:31;14.40;99.90
40177;DHT22;31511;46.176;9.874;2023-04-28T01:11:16;14.20;99.90
40177;DHT22;31511;46.176;9.874;2023-04-28T01:14:00;14.30;99.90
40177;DHT22;31511;46.176;9.874;2023-04-28T01:16:45;14.40;99.90
40177;DHT22;31511;46.176;9.874;2023-04-28T01:19:29;14.50;99.90
40177;DHT22;31511;46.176;9.874;2023-04-28T01:22:14;14.50;99.90
40177;DHT22;31511;46.176;9.874;2023-04-28T01:24:59;14.50;99.90
40177;DHT22;31511;46.176;9.874;2023-04-28T01:27:43;14.50;99.90
40177;DHT22;31511;46.176;9.874;2023-04-28T01:30:28;14.30;99.90
40177;DHT22;31511;46.176;9.874;2023-04-28T01:33:12;14.20;99.90
40177;DHT22;31511;46.176;9.874;2023-04-28T01:35:57;14.30;99.90
40177;DHT22;31511;46.176;9.874;2023-04-28T01:38:42;14.40;99.90
40177;DHT22;31511;46.176;9.874;2023-04-28T01:41:28;14.30;99.90
40177;DHT22;31511;46.176;9.874;2023-04-28T01:44:13;14.40;99.90
40177;DHT22;31511;46.176;9.874;2023-04-28T01:47:00;14.50;99.90
40177;DHT22;31511;46.176;9.874;2023-04-28T01:49:45;14.30;99.90
40177;DHT22;31511;46.176;9.874;2023-04-28T01:52:31;14.10;99.90
40177;DHT22;31511;46.176;9.874;2023-04-28T01:55:15;14.10;99.90
40177;DHT22;31511;46.176;9.874;2023-04-28T01:58:00;14.10;99.90
40177;DHT22;31511;46.176;9.874;2023-04-28T02:00:44;14.10;99.90
40177;DHT22;31511;46.176;9.874;2023-04-28T02:03:29;14.10;99.90
40177;DHT22;31511;46.176;9.874;2023-04-28T02:06:13;14.20;99.90
40177;DHT22;31511;46.176;9.874;2023-04-28T02:08:58;14.10;99.90
40177;DHT22;31511;46.176;9.874;2023-04-28T02:11:42;14.20;99.90
40177;DHT22;31511;46.176;9.874;2023-04-28T02:14:28;14.30;99.90
40177;DHT22;31511;46.176;9.874;2023-04-28T02:17:12;14.30;99.90
40177;DHT22;31511;46.176;9.874;2023-04-28T02:19:57;14.20;99.90
40177;DHT22;31511;46.176;9.874;2023-04-28T02:22:41;14.30;99.90
40177;DHT22;31511;46.176;9.874;2023-04-28T02:25:27;14.10;99.90
40177;DHT22;31511;46.176;9.874;2023-04-28T02:28:13;14.20;99.90
40177;DHT22;31511;46.176;9.874;2023-04-28T02:31:05;14.40;99.90
40177;DHT22;31511;46.176;9.874;2023-04-28T02:33:49;14.30;99.90
40177;DHT22;31511;46.176;9.874;2023-04-28T02:36:33;14.30;99.90
40177;DHT22;31511;46.176;9.874;2023-04-28T02:39:17;14.10;99.90
40177;DHT22;31511;46.176;9.874;2023-04-28T02:42:04;14.00;99.90
40177;DHT22;31511;46.176;9.874;2023-04-28T02:44:48;14.00;99.90
40177;DHT22;31511;46.176;9.874;2023-04-28T02:47:32;14.20;99.90
40177;DHT22;31511;46.176;9.874;2023-04-28T02:50:16;14.10;99.90
40177;DHT22;31511;46.176;9.874;2023-04-28T02:53:00;14.10;99.90
40177;DHT22;31511;46.176;9.874;2023-04-28T02:55:45;14.10;99.90
40177;DHT22;31511;46.176;9.874;2023-04-28T02:58:29;14.10;99.90
40177;DHT22;31511;46.176;9.874;2023-04-28T03:01:13;14.10;99.90
40177;DHT22;31511;46.176;9.874;2023-04-28T03:03:59;13.90;99.90
40177;DHT22;31511;46.176;9.874;2023-04-28T03:06:43;13.70;99.90
40177;DHT22;31511;46.176;9.874;2023-04-28T03:09:28;13.50;99.90
40177;DHT22;31511;46.176;9.874;2023-04-28T03:12:13;13.70;99.90
40177;DHT22;31511;46.176;9.874;2023-04-28T03:14:58;13.70;99.90
40177;DHT22;31511;46.176;9.874;2023-04-28T03:17:44;13.90;99.90
40177;DHT22;31511;46.176;9.874;2023-04-28T03:20:29;13.90;99.90
40177;DHT22;31511;46.176;9.874;2023-04-28T03:23:14;14.00;99.90
40177;DHT22;31511;46.176;9.874;2023-04-28T03:25:59;13.90;99.90
40177;DHT22;31511;46.176;9.874;2023-04-28T03:28:44;13.80;99.90
40177;DHT22;31511;46.176;9.874;2023-04-28T03:31:28;13.70;99.90
40177;DHT22;31511;46.176;9.874;2023-04-28T03:34:12;13.70;99.90
40177;DHT22;31511;46.176;9.874;2023-04-28T03:36:57;13.70;99.90
40177;DHT22;31511;46.176;9.874;2023-04-28T03:39:41;13.80;99.90
40177;DHT22;31511;46.176;9.874;2023-04-28T03:42:27;13.90;99.90
40177;DHT22;31511;46.176;9.874;2023-04-28T03:45:13;14.10;99.90
40177;DHT22;31511;46.176;9.874;2023-04-28T03:47:57;14.20;99.90
40177;DHT22;31511;46.176;9.874;2023-04-28T03:50:42;14.00;99.90
40177;DHT22;31511;46.176;9.874;2023-04-28T03:53:29;13.80;99.90
40177;DHT22;31511;46.176;9.874;2023-04-28T03:56:14;13.80;99.90
40177;DHT22;31511;46.176;9.874;2023-04-28T03:58:59;13.60;99.90
40177;DHT22;31511;46.176;9.874;2023-04-28T04:01:43;13.60;99.90
40177;DHT22;31511;46.176;9.874;2023-04-28T04:04:29;13.40;99.90
40177;DHT22;31511;46.176;9.874;2023-04-28T04:07:13;13.50;99.90
40177;DHT22;31511;46.176;9.874;2023-04-28T04:09:58;13.30;99.90
40177;DHT22;31511;46.176;9.874;2023-04-28T04:12:42;13.40;99.90
40177;DHT22;31511;46.176;9.874;2023-04-28T04:15:28;13.40;99.90
40177;DHT22;31511;46.176;9.874;2023-04-28T04:18:14;13.40;99.90
40177;DHT22;31511;46.176;9.874;2023-04-28T04:20:59;13.50;99.90
40177;DHT22;31511;46.176;9.874;2023-04-28T04:23:43;13.60;99.90
40177;DHT22;31511;46.176;9.874;2023-04-28T04:26:28;13.60;99.90
40177;DHT22;31511;46.176;9.874;2023-04-28T04:29:14;13.40;99.90
40177;DHT22;31511;46.176;9.874;2023-04-28T04:31:58;13.40;99.90
40177;DHT22;31511;46.176;9.874;2023-04-28T04:34:43;13.40;99.90
40177;DHT22;31511;46.176;9.874;2023-04-28T04:37:29;13.40;99.90
40177;DHT22;31511;46.176;9.874;2023-04-28T04:40:16;13.40;99.90
40177;DHT22;31511;46.176;9.874;2023-04-28T04:43:00;13.40;99.90
40177;DHT22;31511;46.176;9.874;2023-04-28T04:45:44;13.40;99.90
40177;DHT22;31511;46.176;9.874;2023-04-28T04:48:30;13.40;99.90
40177;DHT22;31511;46.176;9.874;2023-04-28T04:51:15;13.30;99.90
40177;DHT22;31511;46.176;9.874;2023-04-28T04:53:59;13.10;99.90
40177;DHT22;31511;46.176;9.874;2023-04-28T04:56:43;13.40;99.90
40177;DHT22;31511;46.176;9.874;2023-04-28T04:59:29;13.40;99.90
40177;DHT22;31511;46.176;9.874;2023-04-28T05:02:13;13.50;99.90
40177;DHT22;31511;46.176;9.874;2023-04-28T05:04:58;13.60;99.90
40177;DHT22;31511;46.176;9.874;2023-04-28T05:07:42;13.50;99.90
40177;DHT22;31511;46.176;9.874;2023-04-28T05:10:27;13.60;99.90
40177;DHT22;31511;46.176;9.874;2023-04-28T05:13:13;13.70;99.90
40177;DHT22;31511;46.176;9.874;2023-04-28T05:16:00;13.50;99.90
40177;DHT22;31511;46.176;9.874;2023-04-28T05:18:44;13.50;99.90
40177;DHT22;31511;46.176;9.874;2023-04-28T05:21:28;13.60;99.90
40177;DHT22;31511;46.176;9.874;2023-04-28T05:24:13;13.50;99.90
40177;DHT22;31511;46.176;9.874;2023-04-28T05:26:58;13.50;99.90
40177;DHT22;31511;46.176;9.874;2023-04-28T05:29:42;13.50;99.90
40177;DHT22;31511;46.176;9.874;2023-04-28T05:32:27;13.60;99.90
40177;DHT22;31511;46.176;9.874;2023-04-28T05:35:13;13.80;99.90
40177;DHT22;31511;46.176;9.874;2023-04-28T05:37:58;13.70;99.90
40177;DHT22;31511;46.176;9.874;2023-04-28T05:40:43;13.70;99.90
40177;DHT22;31511;46.176;9.874;2023-04-28T05:43:28;13.60;99.90
40177;DHT22;31511;46.176;9.874;2023-04-28T05:46:14;13.40;99.90
40177;DHT22;31511;46.176;9.874;2023-04-28T05:48:59;13.40;99.90
40177;DHT22;31511;46.176;9.874;2023-04-28T05:51:44;13.50;99.90
40177;DHT22;31511;46.176;9.874;2023-04-28T05:54:29;13.30;99.90
40177;DHT22;31511;46.176;9.874;2023-04-28T05:57:17;13.30;99.90
40177;DHT22;31511;46.176;9.874;2023-04-28T06:00:02;13.60;99.90
40177;DHT22;31511;46.176;9.874;2023-04-28T06:02:46;13.70;99.90
40177;DHT22;31511;46.176;9.874;2023-04-28T06:05:31;13.80;99.90
40177;DHT22;31511;46.176;9.874;2023-04-28T06:08:15;13.90;99.90
40177;DHT22;31511;46.176;9.874;2023-04-28T06:11:00;14.10;99.90
40177;DHT22;31511;46.176;9.874;2023-04-28T06:13:45;14.20;99.90
40177;DHT22;31511;46.176;9.874;2023-04-28T06:16:29;14.20;99.90
40177;DHT22;31511;46.176;9.874;2023-04-28T06:19:14;14.20;99.90
40177;DHT22;31511;46.176;9.874;2023-04-28T06:22:01;14.20;99.90
40177;DHT22;31511;46.176;9.874;2023-04-28T06:24:46;14.20;99.90
40177;DHT22;31511;46.176;9.874;2023-04-28T06:27:30;14.20;99.90
40177;DHT22;31511;46.176;9.874;2023-04-28T06:30:16;14.20;99.90
40177;DHT22;31511;46.176;9.874;2023-04-28T06:33:01;14.10;99.90
40177;DHT22;31511;46.176;9.874;2023-04-28T06:35:45;14.00;99.90
40177;DHT22;31511;46.176;9.874;2023-04-28T06:38:30;13.80;99.90
40177;DHT22;31511;46.176;9.874;2023-04-28T06:41:14;14.10;99.90
40177;DHT22;31511;46.176;9.874;2023-04-28T06:43:59;14.40;99.90
40177;DHT22;31511;46.176;9.874;2023-04-28T06:46:43;14.40;99.90
40177;DHT22;31511;46.176;9.874;2023-04-28T06:49:28;14.70;99.90
40177;DHT22;31511;46.176;9.874;2023-04-28T06:52:12;14.90;99.90
40177;DHT22;31511;46.176;9.874;2023-04-28T06:54:57;15.00;99.90
40177;DHT22;31511;46.176;9.874;2023-04-28T06:57:42;15.20;99.90
40177;DHT22;31511;46.176;9.874;2023-04-28T07:00:26;15.40;99.90
40177;DHT22;31511;46.176;9.874;2023-04-28T07:03:11;15.30;99.90
40177;DHT22;31511;46.176;9.874;2023-04-28T07:05:58;15.50;99.90
40177;DHT22;31511;46.176;9.874;2023-04-28T07:08:42;15.40;99.90
40177;DHT22;31511;46.176;9.874;2023-04-28T07:11:28;15.20;99.90
40177;DHT22;31511;46.176;9.874;2023-04-28T07:14:13;15.30;99.90
40177;DHT22;31511;46.176;9.874;2023-04-28T07:16:58;15.20;99.90
40177;DHT22;31511;46.176;9.874;2023-04-28T07:19:42;15.20;99.90
40177;DHT22;31511;46.176;9.874;2023-04-28T07:22:28;15.30;99.90
40177;DHT22;31511;46.176;9.874;2023-04-28T07:25:15;15.60;99.90
40177;DHT22;31511;46.176;9.874;2023-04-28T07:28:01;15.60;99.90
40177;DHT22;31511;46.176;9.874;2023-04-28T07:30:45;15.60;99.90
40177;DHT22;31511;46.176;9.874;2023-04-28T07:33:29;15.80;99.90
40177;DHT22;31511;46.176;9.874;2023-04-28T07:36:14;15.90;99.90
40177;DHT22;31511;46.176;9.874;2023-04-28T07:38:59;15.80;99.90
40177;DHT22;31511;46.176;9.874;2023-04-28T07:41:44;16.10;99.90
40177;DHT22;31511;46.176;9.874;2023-04-28T07:44:29;16.10;99.90
40177;DHT22;31511;46.176;9.874;2023-04-28T07:47:14;16.10;99.90
40177;DHT22;31511;46.176;9.874;2023-04-28T07:49:59;16.30;99.90
40177;DHT22;31511;46.176;9.874;2023-04-28T07:52:47;16.20;99.90
40177;DHT22;31511;46.176;9.874;2023-04-28T07:55:31;16.10;99.90
40177;DHT22;31511;46.176;9.874;2023-04-28T07:58:16;16.30;99.90
40177;DHT22;31511;46.176;9.874;2023-04-28T08:01:00;16.50;99.90
40177;DHT22;31511;46.176;9.874;2023-04-28T08:03:44;16.50;99.90
40177;DHT22;31511;46.176;9.874;2023-04-28T08:06:30;16.70;99.90
40177;DHT22;31511;46.176;9.874;2023-04-28T08:09:16;16.70;99.90
40177;DHT22;31511;46.176;9.874;2023-04-28T08:12:00;16.80;99.90
40177;DHT22;31511;46.176;9.874;2023-04-28T08:14:44;17.10;99.90
40177;DHT22;31511;46.176;9.874;2023-04-28T08:17:29;17.20;99.90
40177;DHT22;31511;46.176;9.874;2023-04-28T08:20:14;17.40;99.90
40177;DHT22;31511;46.176;9.874;2023-04-28T08:23:02;17.40;99.90
40177;DHT22;31511;46.176;9.874;2023-04-28T08:25:46;17.20;99.90
40177;DHT22;31511;46.176;9.874;2023-04-28T08:28:31;17.40;99.90
40177;DHT22;31511;46.176;9.874;2023-04-28T08:31:17;17.50;99.90
40177;DHT22;31511;46.176;9.874;2023-04-28T08:34:01;17.50;99.90
40177;DHT22;31511;46.176;9.874;2023-04-28T08:36:45;17.70;99.90
40177;DHT22;31511;46.176;9.874;2023-04-28T08:39:30;17.50;99.90
40177;DHT22;31511;46.176;9.874;2023-04-28T08:42:16;17.60;99.90
40177;DHT22;31511;46.176;9.874;2023-04-28T08:45:02;17.80;99.90
40177;DHT22;31511;46.176;9.874;2023-04-28T08:47:47;18.00;99.90
40177;DHT22;31511;46.176;9.874;2023-04-28T08:50:32;17.80;99.90
40177;DHT22;31511;46.176;9.874;2023-04-28T08:53:28;17.70;99.90
40177;DHT22;31511;46.176;9.874;2023-04-28T08:56:13;18.10;99.90
40177;DHT22;31511;46.176;9.874;2023-04-28T08:59:03;18.20;99.90
40177;DHT22;31511;46.176;9.874;2023-04-28T09:01:47;18.00;99.90
40177;DHT22;31511;46.176;9.874;2023-04-28T09:04:32;18.00;99.90
40177;DHT22;31511;46.176;9.874;2023-04-28T09:07:16;18.10;99.90
40177;DHT22;31511;46.176;9.874;2023-04-28T09:10:43;18.10;99.90
40177;DHT22;31511;46.176;9.874;2023-04-28T09:13:11;17.90;99.90
40177;DHT22;31511;46.176;9.874;2023-04-28T09:16:08;17.90;99.90
40177;DHT22;31511;46.176;9.874;2023-04-28T09:18:56;18.00;99.90
40177;DHT22;31511;46.176;9.874;2023-04-28T09:24:32;18.80;99.90
40177;DHT22;31511;46.176;9.874;2023-04-28T09:27:17;19.00;99.90
40177;DHT22;31511;46.176;9.874;2023-04-28T09:30:10;19.00;99.90
40177;DHT22;31511;46.176;9.874;2023-04-28T09:33:02;18.90;99.90
40177;DHT22;31511;46.176;9.874;2023-04-28T09:35:47;18.80;99.90
40177;DHT22;31511;46.176;9.874;2023-04-28T09:38:39;19.30;99.90
40177;DHT22;31511;46.176;9.874;2023-04-28T09:41:38;19.70;99.90
40177;DHT22;31511;46.176;9.874;2023-04-28T09:44:24;19.80;99.90
40177;DHT22;31511;46.176;9.874;2023-04-28T09:47:28;19.70;99.90
40177;DHT22;31511;46.176;9.874;2023-04-28T09:50:16;20.00;99.90
40177;DHT22;31511;46.176;9.874;2023-04-28T09:53:00;20.40;99.90
40177;DHT22;31511;46.176;9.874;2023-04-28T09:55:47;19.80;99.90
40177;DHT22;31511;46.176;9.874;2023-04-28T09:58:33;19.20;99.90
40177;DHT22;31511;46.176;9.874;2023-04-28T10:01:18;19.00;99.90
40177;DHT22;31511;46.176;9.874;2023-04-28T10:04:03;19.10;99.90
40177;DHT22;31511;46.176;9.874;2023-04-28T10:06:48;19.10;99.90
40177;DHT22;31511;46.176;9.874;2023-04-28T10:09:33;18.90;99.90
40177;DHT22;31511;46.176;9.874;2023-04-28T10:12:18;18.90;99.90
40177;DHT22;31511;46.176;9.874;2023-04-28T10:15:04;18.70;99.90
40177;DHT22;31511;46.176;9.874;2023-04-28T10:17:50;18.30;99.90
40177;DHT22;31511;46.176;9.874;2023-04-28T10:20:35;18.70;99.90
40177;DHT22;31511;46.176;9.874;2023-04-28T10:26:13;18.90;99.90
40177;DHT22;31511;46.176;9.874;2023-04-28T10:28:59;19.50;99.90
40177;DHT22;31511;46.176;9.874;2023-04-28T10:34:47;19.40;99.90
40177;DHT22;31511;46.176;9.874;2023-04-28T10:40:39;19.50;99.90
40177;DHT22;31511;46.176;9.874;2023-04-28T10:46:12;19.20;99.90
40177;DHT22;31511;46.176;9.874;2023-04-28T10:48:58;19.00;99.90
40177;DHT22;31511;46.176;9.874;2023-04-28T10:51:42;19.00;99.90
40177;DHT22;31511;46.176;9.874;2023-04-28T10:54:27;18.80;99.90
40177;DHT22;31511;46.176;9.874;2023-04-28T10:57:15;19.10;99.90
40177;DHT22;31511;46.176;9.874;2023-04-28T11:03:03;19.70;99.90
40177;DHT22;31511;46.176;9.874;2023-04-28T11:08:56;19.40;99.90
40177;DHT22;31511;46.176;9.874;2023-04-28T11:14:42;20.60;99.90
40177;DHT22;31511;46.176;9.874;2023-04-28T11:17:38;20.00;99.90
40177;DHT22;31511;46.176;9.874;2023-04-28T11:20:23;22.10;99.90
40177;DHT22;31511;46.176;9.874;2023-04-28T11:23:10;22.70;99.90
40177;DHT22;31511;46.176;9.874;2023-04-28T11:25:55;23.70;99.90
40177;DHT22;31511;46.176;9.874;2023-04-28T11:28:50;22.90;99.90
40177;DHT22;31511;46.176;9.874;2023-04-28T11:31:35;22.80;99.90
40177;DHT22;31511;46.176;9.874;2023-04-28T11:34:20;22.90;99.90
40177;DHT22;31511;46.176;9.874;2023-04-28T11:37:06;23.60;99.90
40177;DHT22;31511;46.176;9.874;2023-04-28T11:39:51;23.20;99.90
40177;DHT22;31511;46.176;9.874;2023-04-28T11:42:35;23.80;99.90
40177;DHT22;31511;46.176;9.874;2023-04-28T11:45:21;24.10;99.90
40177;DHT22;31511;46.176;9.874;2023-04-28T11:48:22;24.10;99.90
40177;DHT22;31511;46.176;9.874;2023-04-28T11:51:08;24.10;99.90
40177;DHT22;31511;46.176;9.874;2023-04-28T11:53:52;22.50;99.90
40177;DHT22;31511;46.176;9.874;2023-04-28T11:56:37;22.30;99.90
40177;DHT22;31511;46.176;9.874;2023-04-28T11:59:30;21.50;99.90
40177;DHT22;31511;46.176;9.874;2023-04-28T12:02:15;21.20;99.90
40177;DHT22;31511;46.176;9.874;2023-04-28T12:05:07;21.50;99.90
40177;DHT22;31511;46.176;9.874;2023-04-28T12:07:52;22.30;99.90
40177;DHT22;31511;46.176;9.874;2023-04-28T12:10:36;21.90;99.90
40177;DHT22;31511;46.176;9.874;2023-04-28T12:13:21;21.60;99.90
40177;DHT22;31511;46.176;9.874;2023-04-28T12:16:07;21.00;99.90
40177;DHT22;31511;46.176;9.874;2023-04-28T12:18:58;21.80;99.90
40177;DHT22;31511;46.176;9.874;2023-04-28T12:21:43;22.60;99.90
40177;DHT22;31511;46.176;9.874;2023-04-28T12:24:29;22.80;99.90
40177;DHT22;31511;46.176;9.874;2023-04-28T12:27:19;22.10;99.90
40177;DHT22;31511;46.176;9.874;2023-04-28T12:33:20;21.40;99.90
40177;DHT22;31511;46.176;9.874;2023-04-28T12:36:06;21.40;99.90
40177;DHT22;31511;46.176;9.874;2023-04-28T12:38:50;22.00;99.90
40177;DHT22;31511;46.176;9.874;2023-04-28T12:41:34;22.00;99.90
40177;DHT22;31511;46.176;9.874;2023-04-28T12:44:18;22.40;99.90
40177;DHT22;31511;46.176;9.874;2023-04-28T12:47:03;22.60;99.90
40177;DHT22;31511;46.176;9.874;2023-04-28T12:49:50;22.10;99.90
40177;DHT22;31511;46.176;9.874;2023-04-28T12:52:35;21.90;99.90
40177;DHT22;31511;46.176;9.874;2023-04-28T12:55:21;21.80;99.90
40177;DHT22;31511;46.176;9.874;2023-04-28T12:58:07;21.50;99.90
40177;DHT22;31511;46.176;9.874;2023-04-28T13:00:51;21.40;99.90
40177;DHT22;31511;46.176;9.874;2023-04-28T13:03:36;21.60;99.90
40177;DHT22;31511;46.176;9.874;2023-04-28T13:06:20;21.50;99.90
40177;DHT22;31511;46.176;9.874;2023-04-28T13:09:05;21.30;99.90
40177;DHT22;31511;46.176;9.874;2023-04-28T13:11:50;21.70;99.90
40177;DHT22;31511;46.176;9.874;2023-04-28T13:14:36;21.50;99.90
40177;DHT22;31511;46.176;9.874;2023-04-28T13:17:21;21.70;99.90
40177;DHT22;31511;46.176;9.874;2023-04-28T13:20:07;21.90;99.90
40177;DHT22;31511;46.176;9.874;2023-04-28T13:22:52;21.70;99.90
40177;DHT22;31511;46.176;9.874;2023-04-28T13:25:36;22.00;99.90
40177;DHT22;31511;46.176;9.874;2023-04-28T13:28:21;21.80;99.90
40177;DHT22;31511;46.176;9.874;2023-04-28T13:31:07;22.20;99.90
40177;DHT22;31511;46.176;9.874;2023-04-28T13:33:51;22.30;99.90
40177;DHT22;31511;46.176;9.874;2023-04-28T13:36:36;21.90;99.90
40177;DHT22;31511;46.176;9.874;2023-04-28T13:39:21;22.40;99.90
40177;DHT22;31511;46.176;9.874;2023-04-28T13:42:06;22.40;99.90
40177;DHT22;31511;46.176;9.874;2023-04-28T13:44:50;22.60;99.90
40177;DHT22;31511;46.176;9.874;2023-04-28T13:47:34;22.60;99.90
40177;DHT22;31511;46.176;9.874;2023-04-28T13:50:19;23.30;99.90
40177;DHT22;31511;46.176;9.874;2023-04-28T13:53:05;22.90;99.90
40177;DHT22;31511;46.176;9.874;2023-04-28T13:55:49;22.70;99.90
40177;DHT22;31511;46.176;9.874;2023-04-28T13:58:34;23.50;99.90
40177;DHT22;31511;46.176;9.874;2023-04-28T14:01:18;23.20;99.90
40177;DHT22;31511;46.176;9.874;2023-04-28T14:04:03;22.90;99.90
40177;DHT22;31511;46.176;9.874;2023-04-28T14:06:47;23.20;99.90
40177;DHT22;31511;46.176;9.874;2023-04-28T14:09:33;22.70;99.90
40177;DHT22;31511;46.176;9.874;2023-04-28T14:12:17;23.00;99.90
40177;DHT22;31511;46.176;9.874;2023-04-28T14:15:01;22.50;99.90
40177;DHT22;31511;46.176;9.874;2023-04-28T14:17:46;22.50;99.90
40177;DHT22;31511;46.176;9.874;2023-04-28T14:20:31;22.70;99.90
40177;DHT22;31511;46.176;9.874;2023-04-28T14:23:15;22.30;99.90
40177;DHT22;31511;46.176;9.874;2023-04-28T14:25:59;22.20;99.90
40177;DHT22;31511;46.176;9.874;2023-04-28T14:28:43;22.10;99.90
40177;DHT22;31511;46.176;9.874;2023-04-28T14:31:29;22.10;99.90
40177;DHT22;31511;46.176;9.874;2023-04-28T14:34:14;22.20;99.90
40177;DHT22;31511;46.176;9.874;2023-04-28T14:36:59;22.20;99.90
40177;DHT22;31511;46.176;9.874;2023-04-28T14:39:43;22.60;99.90
40177;DHT22;31511;46.176;9.874;2023-04-28T14:42:29;22.50;99.90
40177;DHT22;31511;46.176;9.874;2023-04-28T14:45:14;22.30;99.90
40177;DHT22;31511;46.176;9.874;2023-04-28T14:47:58;22.20;99.90
40177;DHT22;31511;46.176;9.874;2023-04-28T14:50:42;22.00;99.90
40177;DHT22;31511;46.176;9.874;2023-04-28T14:53:28;22.10;99.90
40177;DHT22;31511;46.176;9.874;2023-04-28T14:56:13;21.90;99.90
40177;DHT22;31511;46.176;9.874;2023-04-28T14:58:58;21.60;99.90
40177;DHT22;31511;46.176;9.874;2023-04-28T15:01:43;21.50;99.90
40177;DHT22;31511;46.176;9.874;2023-04-28T15:04:28;21.40;99.90
40177;DHT22;31511;46.176;9.874;2023-04-28T15:07:14;21.30;99.90
40177;DHT22;31511;46.176;9.874;2023-04-28T15:09:59;21.30;99.90
40177;DHT22;31511;46.176;9.874;2023-04-28T15:12:43;21.40;99.90
40177;DHT22;31511;46.176;9.874;2023-04-28T15:15:30;21.30;99.90
40177;DHT22;31511;46.176;9.874;2023-04-28T15:18:14;21.40;99.90
40177;DHT22;31511;46.176;9.874;2023-04-28T15:21:00;21.40;99.90
40177;DHT22;31511;46.176;9.874;2023-04-28T15:23:44;21.60;99.90
40177;DHT22;31511;46.176;9.874;2023-04-28T15:26:29;21.40;99.90
40177;DHT22;31511;46.176;9.874;2023-04-28T15:29:14;21.50;99.90
40177;DHT22;31511;46.176;9.874;2023-04-28T15:31:59;21.60;99.90
40177;DHT22;31511;46.176;9.874;2023-04-28T15:34:44;21.60;99.90
40177;DHT22;31511;46.176;9.874;2023-04-28T15:40:13;21.60;99.90
40177;DHT22;31511;46.176;9.874;2023-04-28T15:42:58;21.70;99.90
40177;DHT22;31511;46.176;9.874;2023-04-28T15:45:42;21.80;99.90
40177;DHT22;31511;46.176;9.874;2023-04-28T15:48:29;21.70;99.90
40177;DHT22;31511;46.176;9.874;2023-04-28T15:51:14;21.70;99.90
40177;DHT22;31511;46.176;9.874;2023-04-28T15:53:59;21.70;99.90
40177;DHT22;31511;46.176;9.874;2023-04-28T15:56:43;21.70;99.90
40177;DHT22;31511;46.176;9.874;2023-04-28T15:59:29;21.80;99.90
40177;DHT22;31511;46.176;9.874;2023-04-28T16:02:16;21.70;99.90
40177;DHT22;31511;46.176;9.874;2023-04-28T16:05:00;21.60;99.90
40177;DHT22;31511;46.176;9.874;2023-04-28T16:07:45;21.50;99.90
40177;DHT22;31511;46.176;9.874;2023-04-28T16:10:30;21.40;99.90
40177;DHT22;31511;46.176;9.874;2023-04-28T16:13:15;21.40;99.90
40177;DHT22;31511;46.176;9.874;2023-04-28T16:16:00;21.40;99.90
40177;DHT22;31511;46.176;9.874;2023-04-28T16:18:45;21.40;99.90
40177;DHT22;31511;46.176;9.874;2023-04-28T16:21:29;21.40;99.90
40177;DHT22;31511;46.176;9.874;2023-04-28T16:24:14;21.30;99.90
40177;DHT22;31511;46.176;9.874;2023-04-28T16:26:59;21.30;99.90
40177;DHT22;31511;46.176;9.874;2023-04-28T16:29:43;21.40;99.90
40177;DHT22;31511;46.176;9.874;2023-04-28T16:32:29;21.40;99.90
40177;DHT22;31511;46.176;9.874;2023-04-28T16:35:14;21.50;99.90
40177;DHT22;31511;46.176;9.874;2023-04-28T16:37:58;21.60;99.90
40177;DHT22;31511;46.176;9.874;2023-04-28T16:40:42;21.60;99.90
40177;DHT22;31511;46.176;9.874;2023-04-28T16:43:28;21.30;99.90
40177;DHT22;31511;46.176;9.874;2023-04-28T16:46:15;21.20;99.90
40177;DHT22;31511;46.176;9.874;2023-04-28T16:49:01;21.20;99.90
40177;DHT22;31511;46.176;9.874;2023-04-28T16:51:55;21.10;99.90
40177;DHT22;31511;46.176;9.874;2023-04-28T16:54:39;21.20;99.90
40177;DHT22;31511;46.176;9.874;2023-04-28T16:57:25;21.10;99.90
40177;DHT22;31511;46.176;9.874;2023-04-28T17:00:11;21.00;99.90
40177;DHT22;31511;46.176;9.874;2023-04-28T17:02:55;21.00;99.90
40177;DHT22;31511;46.176;9.874;2023-04-28T17:05:40;20.90;99.90
40177;DHT22;31511;46.176;9.874;2023-04-28T17:08:25;20.90;99.90
40177;DHT22;31511;46.176;9.874;2023-04-28T17:11:14;20.80;99.90
40177;DHT22;31511;46.176;9.874;2023-04-28T17:13:59;20.60;99.90
40177;DHT22;31511;46.176;9.874;2023-04-28T17:16:43;20.60;99.90
40177;DHT22;31511;46.176;9.874;2023-04-28T17:19:29;20.50;99.90
40177;DHT22;31511;46.176;9.874;2023-04-28T17:22:15;20.50;99.90
40177;DHT22;31511;46.176;9.874;2023-04-28T17:24:59;20.40;99.90
40177;DHT22;31511;46.176;9.874;2023-04-28T17:27:44;20.30;99.90
40177;DHT22;31511;46.176;9.874;2023-04-28T17:30:29;20.30;99.90
40177;DHT22;31511;46.176;9.874;2023-04-28T17:33:13;20.30;99.90
40177;DHT22;31511;46.176;9.874;2023-04-28T17:35:58;20.30;99.90
40177;DHT22;31511;46.176;9.874;2023-04-28T17:38:44;20.20;99.90
40177;DHT22;31511;46.176;9.874;2023-04-28T17:41:30;20.20;99.90
40177;DHT22;31511;46.176;9.874;2023-04-28T17:44:14;20.10;99.90
40177;DHT22;31511;46.176;9.874;2023-04-28T17:46:59;20.10;99.90
40177;DHT22;31511;46.176;9.874;2023-04-28T17:49:43;20.00;99.90
40177;DHT22;31511;46.176;9.874;2023-04-28T17:52:29;19.90;99.90
40177;DHT22;31511;46.176;9.874;2023-04-28T17:55:15;19.80;99.90